Time;durP1;ratioP1;P1;durP2;ratioP2;P2;SDS_P1;SDS_P2;PMS_P1;PMS_P2;Temp;Humidity;BMP_temperature;BMP_pressure;BME280_temperature;BME280_humidity;BME280_pressure;Samples;Min_cycle;Max_cycle;Signal;HPM_P1;HPM_P2
2022/12/28 00:01:08;;;;;;;3.77;2.20;;;4.80;99.90;;;;;;4990968;28;20305;-71
2022/12/28 00:03:36;;;;;;;3.90;1.93;;;4.80;99.90;;;;;;4987455;28;20281;-70
2022/12/28 00:06:04;;;;;;;4.87;2.30;;;4.80;99.90;;;;;;4978857;28;20227;-70
2022/12/28 00:08:31;;;;;;;5.03;2.53;;;4.90;99.90;;;;;;4979854;28;20293;-71
2022/12/28 00:11:01;;;;;;;3.37;2.37;;;4.90;99.90;;;;;;4980794;28;20230;-71
2022/12/28 00:13:29;;;;;;;3.87;2.30;;;4.90;99.90;;;;;;4979216;28;20214;-70
2022/12/28 00:15:56;;;;;;;3.40;2.00;;;4.90;99.90;;;;;;4981593;28;20577;-70
2022/12/28 00:18:23;;;;;;;4.47;2.17;;;4.90;99.90;;;;;;4981927;28;20288;-70
2022/12/28 00:20:59;;;;;;;5.80;2.30;;;4.90;99.90;;;;;;4979593;28;20291;-69
2022/12/28 00:23:26;;;;;;;4.27;2.00;;;4.90;99.90;;;;;;4980962;28;20218;-70
2022/12/28 00:25:54;;;;;;;3.30;2.30;;;4.90;99.90;;;;;;4980041;28;20286;-70
2022/12/28 00:28:21;;;;;;;3.80;2.20;;;4.90;99.90;;;;;;4978742;28;20206;-70
2022/12/28 00:30:48;;;;;;;3.23;2.23;;;4.90;99.90;;;;;;4986390;28;20289;-70
2022/12/28 00:33:15;;;;;;;4.10;2.10;;;5.00;99.90;;;;;;4981763;28;20275;-71
2022/12/28 00:35:42;;;;;;;4.77;2.27;;;5.00;99.90;;;;;;4986998;28;20293;-71
2022/12/28 00:38:10;;;;;;;2.10;1.90;;;5.00;99.90;;;;;;4990561;28;20308;-71
2022/12/28 00:40:37;;;;;;;3.87;2.10;;;5.00;99.90;;;;;;4990652;28;20684;-70
2022/12/28 00:43:04;;;;;;;4.37;2.40;;;5.00;99.90;;;;;;4990378;28;20296;-69
2022/12/28 00:45:30;;;;;;;5.33;2.10;;;5.00;99.90;;;;;;4990229;28;20210;-70
2022/12/28 00:47:57;;;;;;;3.10;2.00;;;5.00;99.90;;;;;;4989712;28;20313;-70
2022/12/28 00:50:24;;;;;;;4.83;1.90;;;5.00;99.90;;;;;;4990373;28;20213;-70
2022/12/28 00:52:51;;;;;;;4.77;2.03;;;5.10;99.90;;;;;;4990003;28;20571;-70
2022/12/28 00:55:19;;;;;;;4.60;2.07;;;5.10;99.90;;;;;;4989911;28;20622;-70
2022/12/28 00:57:46;;;;;;;2.87;2.10;;;5.10;99.90;;;;;;4989839;28;20305;-70
2022/12/28 01:00:15;;;;;;;2.97;1.80;;;5.10;99.90;;;;;;4989876;28;20602;-70
2022/12/28 01:02:41;;;;;;;3.43;1.67;;;5.10;99.90;;;;;;4989649;28;20656;-70
2022/12/28 01:05:09;;;;;;;5.83;2.10;;;5.10;99.90;;;;;;4990103;28;20312;-70
2022/12/28 01:07:36;;;;;;;5.80;2.03;;;5.10;99.90;;;;;;4988755;28;20658;-70
2022/12/28 01:10:03;;;;;;;2.43;2.10;;;5.10;99.90;;;;;;4989454;28;20298;-70
2022/12/28 01:12:31;;;;;;;3.43;1.80;;;5.10;99.90;;;;;;4988403;28;20677;-70
2022/12/28 01:14:58;;;;;;;3.77;1.87;;;5.10;99.90;;;;;;4989782;28;20295;-70
2022/12/28 01:17:25;;;;;;;2.63;1.70;;;5.10;99.90;;;;;;4989653;28;20293;-70
2022/12/28 01:19:52;;;;;;;3.23;1.90;;;5.10;99.90;;;;;;4989428;28;20253;-70
2022/12/28 01:22:19;;;;;;;3.10;2.17;;;5.20;99.90;;;;;;4979403;28;20329;-70
2022/12/28 01:24:46;;;;;;;4.60;1.97;;;5.10;99.90;;;;;;4969362;28;20221;-71
2022/12/28 01:27:13;;;;;;;1.70;1.60;;;5.10;99.90;;;;;;4985121;28;20329;-70
2022/12/28 01:29:41;;;;;;;2.03;1.83;;;5.10;99.90;;;;;;4988877;28;20217;-70
2022/12/28 01:32:08;;;;;;;2.60;1.93;;;5.10;99.90;;;;;;4989317;28;20229;-70
2022/12/28 01:34:34;;;;;;;2.03;1.90;;;5.10;99.90;;;;;;4988931;28;20237;-70
2022/12/28 01:37:02;;;;;;;2.43;2.10;;;5.10;99.90;;;;;;4988920;28;20699;-70
2022/12/28 01:39:28;;;;;;;5.30;2.40;;;5.10;99.90;;;;;;4988704;28;20313;-70
2022/12/28 01:41:56;;;;;;;2.00;1.80;;;5.10;99.90;;;;;;4989154;28;20210;-70
2022/12/28 01:44:45;;;;;;;2.60;1.77;;;5.10;99.90;;;;;;4989197;28;20304;-70
2022/12/28 01:47:18;;;;;;;2.47;1.87;;;5.10;99.90;;;;;;4970571;28;20729;-71
2022/12/28 01:49:50;;;;;;;2.33;1.83;;;5.20;99.90;;;;;;4969537;28;20465;-70
2022/12/28 01:52:22;;;;;;;2.50;1.60;;;5.10;99.90;;;;;;4974635;28;20213;-70
2022/12/28 01:54:52;;;;;;;1.70;1.60;;;5.10;99.90;;;;;;4993245;28;20657;-70
2022/12/28 01:57:21;;;;;;;3.80;2.07;;;5.10;99.90;;;;;;4990534;28;20234;-70
2022/12/28 01:59:53;;;;;;;3.50;1.90;;;5.10;99.90;;;;;;4988562;28;21164;-70
2022/12/28 02:02:21;;;;;;;3.43;1.70;;;5.10;99.90;;;;;;4988882;28;20281;-70
2022/12/28 02:04:48;;;;;;;3.63;1.83;;;5.10;99.90;;;;;;4988375;28;20247;-70
2022/12/28 02:07:21;;;;;;;3.13;1.80;;;5.10;99.90;;;;;;4988712;28;20272;-70
2022/12/28 02:09:49;;;;;;;3.57;1.93;;;5.00;99.90;;;;;;4988353;28;20592;-70
2022/12/28 02:12:17;;;;;;;3.23;2.23;;;4.90;99.90;;;;;;4987960;28;20236;-70
2022/12/28 02:14:46;;;;;;;2.17;1.87;;;5.00;99.90;;;;;;4988223;28;20298;-70
2022/12/28 02:17:14;;;;;;;3.60;1.90;;;4.90;99.90;;;;;;4988442;28;20308;-70
2022/12/28 02:19:45;;;;;;;3.17;1.70;;;4.90;99.90;;;;;;4987822;28;20213;-70
2022/12/28 02:22:46;;;;;;;4.10;1.73;;;4.90;99.90;;;;;;4988055;28;20202;-70
2022/12/28 02:25:43;;;;;;;4.40;2.10;;;5.00;99.90;;;;;;4988163;28;20274;-70
2022/12/28 02:28:27;;;;;;;2.13;1.67;;;4.90;99.90;;;;;;4973423;28;20210;-71
2022/12/28 02:31:02;;;;;;;2.60;1.80;;;4.90;99.90;;;;;;5002640;28;20732;-70
2022/12/28 02:33:35;;;;;;;6.30;2.60;;;4.90;99.90;;;;;;4973566;28;20202;-70
2022/12/28 02:36:08;;;;;;;3.57;1.87;;;4.90;99.90;;;;;;4988604;28;20201;-70
2022/12/28 02:38:40;;;;;;;3.23;1.80;;;4.90;99.90;;;;;;4987832;28;20293;-69
2022/12/28 02:41:10;;;;;;;3.80;2.00;;;4.90;99.90;;;;;;4988473;28;20198;-70
2022/12/28 02:43:38;;;;;;;2.23;1.93;;;4.80;99.90;;;;;;4988354;28;20264;-70
2022/12/28 02:52:03;;;;;;;2.80;1.90;;;4.80;99.90;;;;;;4981990;28;20217;-70
2022/12/28 02:58:11;;;;;;;2.83;2.07;;;4.80;99.90;;;;;;4968091;28;20728;-70
2022/12/28 03:00:48;;;;;;;2.50;1.80;;;4.80;99.90;;;;;;4968491;28;20195;-70
2022/12/28 03:03:25;;;;;;;3.90;2.03;;;4.80;99.90;;;;;;4968489;28;20925;-70
2022/12/28 03:08:51;;;;;;;2.60;1.80;;;4.80;99.90;;;;;;4987669;28;20228;-69
2022/12/28 03:11:21;;;;;;;2.47;2.27;;;4.80;99.90;;;;;;4987859;28;20233;-70
2022/12/28 03:13:52;;;;;;;2.10;1.90;;;4.80;99.90;;;;;;4987978;28;20233;-71
2022/12/28 03:16:25;;;;;;;5.00;2.30;;;4.80;99.90;;;;;;4988219;28;20840;-71
2022/12/28 03:32:50;;;;;;;5.17;1.90;;;4.70;99.90;;;;;;4987015;28;20314;-71
2022/12/28 03:35:23;;;;;;;3.23;2.20;;;4.60;99.90;;;;;;4986915;28;20254;-70
2022/12/28 03:37:53;;;;;;;2.27;1.80;;;4.70;99.90;;;;;;4987086;28;20202;-70
2022/12/28 03:40:28;;;;;;;2.50;2.20;;;4.70;99.90;;;;;;4987133;28;20373;-70
2022/12/28 03:45:51;;;;;;;2.30;2.10;;;4.70;99.90;;;;;;4986809;28;20241;-70
2022/12/28 03:48:18;;;;;;;3.30;2.10;;;4.80;99.90;;;;;;4987014;28;20249;-70
2022/12/28 03:50:49;;;;;;;2.47;2.20;;;4.80;99.90;;;;;;4987929;28;20292;-71
2022/12/28 03:53:17;;;;;;;2.43;2.00;;;4.80;99.90;;;;;;4990400;28;20687;-71
2022/12/28 03:55:44;;;;;;;4.03;2.30;;;4.70;99.90;;;;;;4990760;28;20206;-71
2022/12/28 03:58:11;;;;;;;2.37;1.80;;;4.70;99.90;;;;;;4991538;28;20216;-71
2022/12/28 04:00:38;;;;;;;5.20;2.40;;;4.70;99.90;;;;;;4990993;28;20264;-70
2022/12/28 04:03:05;;;;;;;2.43;2.20;;;4.70;99.90;;;;;;4990500;28;20212;-70
2022/12/28 04:05:32;;;;;;;2.37;1.90;;;4.70;99.90;;;;;;4990691;28;20313;-70
2022/12/28 04:08:01;;;;;;;4.97;2.03;;;4.70;99.90;;;;;;4990394;28;20225;-71
2022/12/28 04:10:27;;;;;;;3.30;1.70;;;4.70;99.90;;;;;;4990355;28;20290;-71
2022/12/28 04:12:56;;;;;;;2.07;1.70;;;4.70;99.90;;;;;;4990721;28;20218;-70
2022/12/28 04:15:23;;;;;;;5.10;2.17;;;4.70;99.90;;;;;;4989328;28;20248;-70
2022/12/28 04:17:50;;;;;;;3.20;1.90;;;4.70;99.90;;;;;;4990189;28;20305;-70
2022/12/28 04:20:17;;;;;;;4.00;1.80;;;4.80;99.90;;;;;;4990613;28;20476;-72
2022/12/28 04:22:44;;;;;;;2.20;2.00;;;4.70;99.90;;;;;;4990366;28;20202;-72
2022/12/28 04:25:12;;;;;;;2.90;1.80;;;4.80;99.90;;;;;;4990245;28;20304;-71
2022/12/28 04:27:39;;;;;;;1.97;1.57;;;4.70;99.90;;;;;;4989533;28;20328;-71
2022/12/28 04:30:07;;;;;;;2.27;2.10;;;4.70;99.90;;;;;;4990449;28;20237;-71
2022/12/28 04:32:34;;;;;;;2.33;1.80;;;4.60;99.90;;;;;;4990330;28;20302;-71
2022/12/28 04:35:01;;;;;;;2.47;1.67;;;4.60;99.90;;;;;;4990384;28;20301;-71
2022/12/28 04:37:28;;;;;;;2.57;2.13;;;4.60;99.90;;;;;;4990420;28;20325;-71
2022/12/28 04:39:55;;;;;;;3.97;1.97;;;4.50;99.90;;;;;;4990295;28;20335;-71
2022/12/28 04:42:23;;;;;;;4.77;1.47;;;4.50;99.90;;;;;;4989976;28;20297;-69
2022/12/28 04:44:50;;;;;;;2.93;1.57;;;4.60;99.90;;;;;;4989841;28;20673;-69
2022/12/28 04:47:17;;;;;;;1.40;1.30;;;4.60;99.90;;;;;;4989970;28;20206;-69
2022/12/28 04:49:44;;;;;;;2.90;1.30;;;4.50;99.90;;;;;;4990217;28;20206;-69
2022/12/28 04:52:11;;;;;;;5.03;1.90;;;4.50;99.90;;;;;;4990163;28;20308;-69
2022/12/28 04:54:37;;;;;;;2.10;1.50;;;4.50;99.90;;;;;;4989577;28;20339;-72
2022/12/28 04:57:05;;;;;;;5.57;1.90;;;4.50;99.90;;;;;;4989737;28;20198;-72
2022/12/28 04:59:33;;;;;;;4.07;1.50;;;4.50;99.90;;;;;;4989757;28;20210;-72
2022/12/28 05:02:00;;;;;;;1.67;1.20;;;4.50;99.90;;;;;;4989056;28;20297;-72
2022/12/28 05:04:27;;;;;;;5.70;1.70;;;4.60;99.90;;;;;;4989426;28;20332;-72
2022/12/28 05:06:54;;;;;;;2.73;1.70;;;4.60;99.90;;;;;;4989654;28;20208;-72
2022/12/28 05:09:21;;;;;;;1.43;1.33;;;4.60;99.90;;;;;;4989551;28;20324;-72
2022/12/28 05:11:48;;;;;;;5.70;1.73;;;4.60;99.90;;;;;;4989247;28;20337;-72
2022/12/28 05:14:15;;;;;;;1.23;1.13;;;4.60;99.90;;;;;;4989720;28;20301;-72
2022/12/28 05:16:43;;;;;;;1.63;1.53;;;4.60;99.90;;;;;;4980787;28;20305;-72
2022/12/28 05:19:10;;;;;;;1.97;1.40;;;4.60;99.90;;;;;;4979277;28;20314;-71
2022/12/28 05:21:37;;;;;;;2.10;1.50;;;4.60;99.90;;;;;;4986032;28;20285;-72
2022/12/28 05:24:04;;;;;;;3.20;1.10;;;4.60;99.90;;;;;;4983964;28;20210;-73
2022/12/28 05:26:31;;;;;;;2.87;1.60;;;4.60;99.90;;;;;;4989458;28;20210;-72
2022/12/28 05:28:58;;;;;;;5.03;1.57;;;4.60;99.90;;;;;;4989578;28;20244;-72
2022/12/28 05:31:26;;;;;;;4.90;1.23;;;4.50;99.90;;;;;;4989558;28;20300;-72
2022/12/28 05:33:54;;;;;;;1.60;1.30;;;4.50;99.90;;;;;;4989177;28;20237;-71
2022/12/28 05:36:23;;;;;;;2.73;1.60;;;4.50;99.90;;;;;;4989343;28;20237;-71
2022/12/28 05:38:50;;;;;;;2.67;1.50;;;4.50;99.90;;;;;;4988923;28;20576;-70
2022/12/28 05:41:20;;;;;;;1.90;1.30;;;4.50;99.90;;;;;;4988807;28;20404;-70
2022/12/28 05:43:47;;;;;;;2.10;1.40;;;4.60;99.90;;;;;;4989070;28;20660;-70
2022/12/28 05:46:17;;;;;;;3.00;1.37;;;4.50;99.90;;;;;;4978497;28;20290;-70
2022/12/28 05:48:45;;;;;;;3.70;1.50;;;4.50;99.90;;;;;;4969301;28;20306;-70
2022/12/28 05:51:15;;;;;;;2.47;1.30;;;4.50;99.90;;;;;;4969578;28;20303;-70
2022/12/28 05:53:42;;;;;;;3.17;1.50;;;4.50;99.90;;;;;;4971393;28;20864;-70
2022/12/28 05:56:12;;;;;;;1.57;1.33;;;4.60;99.90;;;;;;4988240;28;20446;-70
2022/12/28 05:58:39;;;;;;;3.27;1.20;;;4.60;99.90;;;;;;4987987;28;20693;-70
2022/12/28 06:01:08;;;;;;;2.63;1.30;;;4.60;99.90;;;;;;4988455;28;20204;-70
2022/12/28 06:03:35;;;;;;;2.27;1.23;;;4.60;99.90;;;;;;4987730;28;20293;-70
2022/12/28 06:06:07;;;;;;;4.50;1.40;;;4.60;99.90;;;;;;4988777;28;20349;-70
2022/12/28 06:08:36;;;;;;;3.07;1.27;;;4.60;99.90;;;;;;4986828;28;20288;-70
2022/12/28 06:11:04;;;;;;;2.20;1.27;;;4.60;99.90;;;;;;4988218;28;20330;-70
2022/12/28 06:13:32;;;;;;;3.83;1.43;;;4.60;99.90;;;;;;4988151;28;20286;-70
2022/12/28 06:15:59;;;;;;;2.70;1.23;;;4.60;99.90;;;;;;4994899;28;20293;-70
2022/12/28 06:18:29;;;;;;;1.93;1.13;;;4.70;99.90;;;;;;4988258;28;20676;-71
2022/12/28 06:21:01;;;;;;;2.00;1.23;;;4.70;99.90;;;;;;4988200;28;20579;-69
2022/12/28 06:23:28;;;;;;;3.97;1.50;;;4.70;99.90;;;;;;4988150;28;20233;-70
2022/12/28 06:25:58;;;;;;;1.53;1.20;;;4.80;99.90;;;;;;4988340;28;20221;-69
2022/12/28 06:28:25;;;;;;;2.03;1.20;;;4.80;99.90;;;;;;4988120;28;20328;-69
2022/12/28 06:30:52;;;;;;;1.93;1.10;;;4.80;99.90;;;;;;4988163;28;20301;-69
2022/12/28 06:33:19;;;;;;;3.37;1.40;;;4.90;99.90;;;;;;4987807;28;20301;-69
2022/12/28 06:35:46;;;;;;;3.17;1.30;;;4.90;99.90;;;;;;4987398;28;20293;-69
2022/12/28 06:38:12;;;;;;;1.07;0.93;;;4.90;99.90;;;;;;4988167;28;20214;-69
2022/12/28 06:40:39;;;;;;;1.90;1.20;;;5.00;99.90;;;;;;4987971;28;20298;-69
2022/12/28 06:43:08;;;;;;;2.37;1.60;;;5.00;99.90;;;;;;4988124;28;20316;-69
2022/12/28 06:45:34;;;;;;;2.30;1.47;;;5.00;99.90;;;;;;4987285;28;20295;-69
2022/12/28 06:48:01;;;;;;;2.17;1.20;;;4.90;99.90;;;;;;4968908;28;20217;-69
2022/12/28 06:50:28;;;;;;;1.53;1.43;;;4.90;99.90;;;;;;4968810;28;20301;-69
2022/12/28 06:52:55;;;;;;;2.07;1.20;;;4.90;99.90;;;;;;4968740;28;20211;-69
2022/12/28 06:55:22;;;;;;;1.30;1.20;;;4.90;99.90;;;;;;4971160;28;20664;-69
2022/12/28 06:57:48;;;;;;;2.80;1.30;;;4.90;99.90;;;;;;4987670;28;20665;-69
2022/12/28 07:00:17;;;;;;;2.27;1.37;;;4.90;99.90;;;;;;4987801;28;20657;-69
2022/12/28 07:02:44;;;;;;;2.37;1.30;;;4.90;99.90;;;;;;4987767;28;20301;-70
2022/12/28 07:05:11;;;;;;;1.37;1.10;;;4.90;99.90;;;;;;4987705;28;20716;-71
2022/12/28 07:07:38;;;;;;;2.20;1.40;;;4.90;99.90;;;;;;4987895;28;20242;-72
2022/12/28 07:10:05;;;;;;;1.87;1.60;;;4.90;99.90;;;;;;4987818;28;20318;-71
2022/12/28 07:12:32;;;;;;;3.03;1.43;;;4.90;99.90;;;;;;4988024;28;20324;-71
2022/12/28 07:14:59;;;;;;;1.87;1.40;;;4.90;99.90;;;;;;4986952;28;20212;-71
2022/12/28 07:17:27;;;;;;;3.97;1.47;;;4.90;99.90;;;;;;4968632;28;20249;-71
2022/12/28 07:19:54;;;;;;;2.37;1.43;;;4.90;99.90;;;;;;4968726;28;20203;-70
2022/12/28 07:22:21;;;;;;;3.10;1.63;;;4.90;99.90;;;;;;4968791;28;20643;-70
2022/12/28 07:24:48;;;;;;;1.40;1.30;;;4.90;99.90;;;;;;5007147;28;20632;-70
2022/12/28 07:27:15;;;;;;;2.53;1.30;;;4.90;99.90;;;;;;5010506;28;20587;-70
2022/12/28 07:29:41;;;;;;;3.07;1.47;;;4.90;99.90;;;;;;5006416;28;20720;-70
2022/12/28 07:32:09;;;;;;;2.83;1.37;;;4.90;99.90;;;;;;4972157;28;20207;-69
2022/12/28 07:34:37;;;;;;;1.60;1.50;;;4.90;99.90;;;;;;4972250;28;20231;-70
2022/12/28 07:37:04;;;;;;;2.10;1.27;;;4.90;99.90;;;;;;4990179;28;20202;-70
2022/12/28 07:39:31;;;;;;;2.17;1.70;;;4.90;99.90;;;;;;4991432;28;20312;-70
2022/12/28 07:41:57;;;;;;;2.33;1.50;;;4.90;99.90;;;;;;4991372;28;20300;-70
2022/12/28 07:44:24;;;;;;;1.80;1.40;;;4.90;99.90;;;;;;4991395;28;20238;-69
2022/12/28 07:46:51;;;;;;;4.90;1.60;;;4.90;99.90;;;;;;4975585;28;20630;-69
2022/12/28 07:49:18;;;;;;;1.90;1.47;;;4.90;99.90;;;;;;4971302;28;20237;-69
2022/12/28 07:51:46;;;;;;;2.93;1.87;;;4.90;99.90;;;;;;4979946;28;20650;-69
2022/12/28 07:54:13;;;;;;;2.30;1.50;;;4.90;99.90;;;;;;4991150;28;20206;-70
2022/12/28 07:56:40;;;;;;;2.00;1.67;;;4.90;99.90;;;;;;4991096;28;20784;-71
2022/12/28 07:59:07;;;;;;;2.50;1.70;;;4.90;99.90;;;;;;4991316;28;20767;-68
2022/12/28 08:01:36;;;;;;;2.73;1.60;;;5.00;99.90;;;;;;4971660;28;20218;-68
2022/12/28 08:04:05;;;;;;;2.53;1.87;;;5.00;99.90;;;;;;4971424;28;20592;-68
2022/12/28 08:06:35;;;;;;;2.17;1.70;;;5.00;99.90;;;;;;4980471;28;20217;-69
2022/12/28 08:09:04;;;;;;;3.23;1.90;;;5.00;99.90;;;;;;4990412;28;20739;-69
2022/12/28 08:11:34;;;;;;;2.27;2.03;;;5.00;99.90;;;;;;4990637;28;20388;-69
2022/12/28 08:14:02;;;;;;;3.67;2.20;;;5.00;99.90;;;;;;4991336;28;20242;-69
2022/12/28 08:16:32;;;;;;;3.83;2.13;;;5.00;99.90;;;;;;4984947;28;20297;-70
2022/12/28 08:18:59;;;;;;;2.33;1.90;;;5.00;99.90;;;;;;4990883;28;20257;-71
2022/12/28 08:21:28;;;;;;;5.03;2.10;;;5.00;99.90;;;;;;4990456;28;20316;-70
2022/12/28 08:23:56;;;;;;;2.80;1.97;;;5.10;99.90;;;;;;4990326;28;20210;-71
2022/12/28 08:26:27;;;;;;;3.53;2.07;;;5.10;99.90;;;;;;4991025;28;20206;-70
2022/12/28 08:28:56;;;;;;;3.50;1.73;;;5.10;99.90;;;;;;4988985;28;20321;-70
2022/12/28 08:31:25;;;;;;;4.27;1.90;;;5.10;99.90;;;;;;4989002;28;20210;-70
2022/12/28 08:33:53;;;;;;;3.27;1.83;;;5.20;99.90;;;;;;4988928;28;20210;-71
2022/12/28 08:36:20;;;;;;;2.27;1.63;;;5.20;99.90;;;;;;4989178;28;20305;-70
2022/12/28 08:38:47;;;;;;;1.80;1.70;;;5.20;99.90;;;;;;4988379;28;20869;-71
2022/12/28 08:41:17;;;;;;;5.03;1.93;;;5.20;99.90;;;;;;4988103;28;20672;-70
2022/12/28 08:43:46;;;;;;;1.90;1.80;;;5.30;99.90;;;;;;4987938;28;20222;-71
2022/12/28 08:46:16;;;;;;;4.13;2.00;;;5.30;99.90;;;;;;4988154;28;20213;-70
2022/12/28 08:48:43;;;;;;;2.93;2.03;;;5.30;99.90;;;;;;4987939;28;20213;-70
2022/12/28 08:51:12;;;;;;;2.33;2.10;;;5.30;99.90;;;;;;4988112;28;20309;-70
2022/12/28 08:53:40;;;;;;;3.70;2.00;;;5.30;99.90;;;;;;4988786;28;20300;-70
2022/12/28 08:56:10;;;;;;;3.97;1.80;;;5.40;99.90;;;;;;4988063;28;20213;-70
2022/12/28 08:58:37;;;;;;;3.23;1.60;;;5.40;99.90;;;;;;4988312;28;20205;-70
2022/12/28 09:01:08;;;;;;;2.80;1.80;;;5.40;99.90;;;;;;4988099;28;20237;-70
2022/12/28 09:03:36;;;;;;;2.33;2.00;;;5.50;99.90;;;;;;4981929;28;20676;-70
2022/12/28 09:06:04;;;;;;;3.83;1.80;;;5.50;99.90;;;;;;4968452;28;20210;-70
2022/12/28 09:08:31;;;;;;;3.67;2.00;;;5.50;99.90;;;;;;4985587;28;20662;-70
2022/12/28 09:11:00;;;;;;;2.60;1.70;;;5.50;99.90;;;;;;4987459;28;20321;-69
2022/12/28 09:13:28;;;;;;;2.50;1.83;;;5.50;99.90;;;;;;4987352;28;20206;-70
2022/12/28 09:15:59;;;;;;;1.80;1.57;;;5.50;99.90;;;;;;4979968;28;20215;-70
2022/12/28 09:18:28;;;;;;;2.30;2.10;;;5.60;99.90;;;;;;4968272;28;20745;-71
2022/12/28 09:20:55;;;;;;;2.53;1.80;;;5.60;99.90;;;;;;4968153;28;20699;-70
2022/12/28 09:23:22;;;;;;;1.80;1.70;;;5.60;99.90;;;;;;4981783;28;20221;-71
2022/12/28 09:25:49;;;;;;;2.20;1.97;;;5.60;99.90;;;;;;4987499;28;20310;-71
2022/12/28 09:28:16;;;;;;;2.20;1.90;;;5.70;99.90;;;;;;4987013;28;20666;-70
2022/12/28 09:30:43;;;;;;;2.03;1.77;;;5.70;99.90;;;;;;4986813;28;20329;-70
2022/12/28 09:35:59;;;;;;;1.83;1.73;;;5.70;99.90;;;;;;4986995;28;20224;-70
2022/12/28 09:38:26;;;;;;;2.50;1.60;;;5.80;99.90;;;;;;4986683;28;20202;-70
2022/12/28 09:40:53;;;;;;;1.73;1.63;;;5.80;99.90;;;;;;4986665;28;20305;-70
2022/12/28 09:43:20;;;;;;;2.87;1.73;;;5.90;99.90;;;;;;4986789;28;20644;-71
2022/12/28 09:45:48;;;;;;;1.90;1.80;;;5.90;99.90;;;;;;4980583;28;20299;-71
2022/12/28 09:48:18;;;;;;;2.43;1.80;;;5.90;99.90;;;;;;4967251;28;20250;-70
2022/12/28 09:50:49;;;;;;;11.17;7.80;;;6.00;99.90;;;;;;4967633;28;20353;-70
2022/12/28 09:53:28;;;;;;;1.97;1.87;;;6.10;99.90;;;;;;4981618;28;20208;-71
2022/12/28 09:56:00;;;;;;;3.37;2.00;;;6.10;99.90;;;;;;4987055;28;20209;-71
2022/12/28 09:58:29;;;;;;;1.63;1.53;;;6.10;99.90;;;;;;4986906;28;20281;-71
2022/12/28 10:00:58;;;;;;;2.30;1.70;;;6.10;99.90;;;;;;4986896;28;20214;-71
2022/12/28 10:03:27;;;;;;;1.87;1.60;;;6.20;99.90;;;;;;4986156;28;20269;-71
2022/12/28 10:05:56;;;;;;;2.37;1.70;;;6.20;99.90;;;;;;4986670;28;20317;-71
2022/12/28 10:08:26;;;;;;;2.43;1.57;;;6.30;99.90;;;;;;4986918;28;20247;-71
2022/12/28 10:10:55;;;;;;;1.60;1.50;;;6.30;99.90;;;;;;4983775;28;20329;-71
2022/12/28 10:13:24;;;;;;;1.50;1.40;;;6.30;99.90;;;;;;4977304;28;20210;-71
2022/12/28 10:15:52;;;;;;;1.87;1.77;;;6.40;99.90;;;;;;4974145;28;20206;-71
2022/12/28 10:18:24;;;;;;;3.60;1.60;;;6.40;99.90;;;;;;4982107;28;20643;-71
2022/12/28 10:20:54;;;;;;;2.30;1.70;;;6.40;99.90;;;;;;4981598;28;20294;-71
2022/12/28 10:23:26;;;;;;;1.60;1.50;;;6.40;99.90;;;;;;4975121;28;20206;-71
2022/12/28 10:25:55;;;;;;;3.53;1.60;;;6.40;99.90;;;;;;4986499;28;20285;-71
2022/12/28 10:28:28;;;;;;;1.97;1.80;;;6.40;99.90;;;;;;4986285;28;20214;-71
2022/12/28 10:31:04;;;;;;;2.03;1.73;;;6.40;99.90;;;;;;4986364;28;20687;-71
2022/12/28 10:33:31;;;;;;;2.57;1.80;;;6.40;99.90;;;;;;4985903;28;20288;-70
2022/12/28 10:35:59;;;;;;;2.70;1.63;;;6.40;99.90;;;;;;4986738;28;20236;-71
2022/12/28 10:38:31;;;;;;;2.33;1.70;;;6.40;99.90;;;;;;4986507;28;20301;-71
2022/12/28 10:41:03;;;;;;;1.90;1.63;;;6.40;99.90;;;;;;4990324;28;20313;-70
2022/12/28 10:43:32;;;;;;;3.07;1.70;;;6.50;99.90;;;;;;4976406;28;20217;-70
2022/12/28 10:46:01;;;;;;;4.27;1.73;;;6.60;99.90;;;;;;4979508;28;20232;-70
2022/12/28 10:48:31;;;;;;;4.07;1.80;;;6.70;99.90;;;;;;4984188;28;20651;-70
2022/12/28 10:51:01;;;;;;;1.80;1.70;;;6.70;99.90;;;;;;4977289;28;20607;-70
2022/12/28 10:53:32;;;;;;;1.40;1.30;;;6.70;99.90;;;;;;4977914;28;20198;-70
2022/12/28 10:56:06;;;;;;;1.50;1.40;;;6.70;99.90;;;;;;4980920;28;20244;-70
2022/12/28 10:58:34;;;;;;;2.10;1.70;;;6.80;99.90;;;;;;4976863;28;20205;-68
2022/12/28 11:01:05;;;;;;;2.37;1.63;;;6.80;99.90;;;;;;4980155;28;20202;-70
2022/12/28 11:03:34;;;;;;;1.70;1.60;;;6.90;99.90;;;;;;4979477;28;20195;-70
2022/12/28 11:06:18;;;;;;;1.50;1.40;;;6.90;99.90;;;;;;4982279;28;20198;-70
2022/12/28 11:09:01;;;;;;;1.83;1.60;;;7.00;99.90;;;;;;4982259;28;20195;-73
2022/12/28 11:11:28;;;;;;;1.70;1.60;;;7.00;99.90;;;;;;4977554;28;20630;-70
2022/12/28 11:14:00;;;;;;;1.77;1.60;;;7.00;99.90;;;;;;4971431;28;20669;-70
2022/12/28 11:16:27;;;;;;;1.40;1.30;;;7.10;99.90;;;;;;4989141;28;20736;-69
2022/12/28 11:18:54;;;;;;;1.60;1.50;;;7.10;99.90;;;;;;4990265;28;20313;-69
2022/12/28 11:21:22;;;;;;;2.17;1.33;;;7.20;99.90;;;;;;4990319;28;20297;-70
2022/12/28 11:23:52;;;;;;;1.63;1.53;;;7.20;99.90;;;;;;4990181;28;20206;-70
2022/12/28 11:26:19;;;;;;;1.60;1.50;;;7.20;99.90;;;;;;4988262;28;20207;-70
2022/12/28 11:28:49;;;;;;;1.53;1.43;;;7.20;99.90;;;;;;4986419;28;20319;-70
2022/12/28 11:31:21;;;;;;;1.77;1.43;;;7.30;99.90;;;;;;4972350;28;20230;-70
2022/12/28 11:33:51;;;;;;;1.50;1.40;;;7.30;99.90;;;;;;4969572;28;20736;-70
2022/12/28 11:36:20;;;;;;;1.63;1.53;;;7.30;99.90;;;;;;4969831;28;20666;-69
2022/12/28 11:38:49;;;;;;;1.80;1.70;;;7.30;99.90;;;;;;4978063;28;21026;-69
2022/12/28 11:41:45;;;;;;;2.17;1.70;;;7.40;99.90;;;;;;4988743;28;20245;-69
2022/12/28 11:44:22;;;;;;;1.90;1.40;;;7.40;99.90;;;;;;4976062;28;20345;-69
2022/12/28 11:47:04;;;;;;;1.60;1.50;;;7.30;99.90;;;;;;4982094;28;20202;-69
2022/12/28 11:49:34;;;;;;;1.80;1.40;;;7.50;99.90;;;;;;4985031;28;20330;-69
2022/12/28 11:52:33;;;;;;;2.03;1.53;;;7.50;99.90;;;;;;4983440;28;20217;-70
2022/12/28 11:55:01;;;;;;;3.10;1.70;;;7.50;99.90;;;;;;4979263;28;20252;-70
2022/12/28 11:57:37;;;;;;;1.50;1.40;;;7.50;99.90;;;;;;4988556;28;20210;-69
2022/12/28 12:00:46;;;;;;;1.70;1.50;;;7.60;99.90;;;;;;4979145;28;20295;-69
2022/12/28 12:03:14;;;;;;;1.77;1.40;;;7.60;99.90;;;;;;4969619;28;20294;-69
2022/12/28 12:05:53;;;;;;;1.33;1.23;;;7.60;99.90;;;;;;4974292;28;20230;-69
2022/12/28 12:08:49;;;;;;;1.50;1.40;;;7.70;99.90;;;;;;4989105;28;20209;-70
2022/12/28 12:11:32;;;;;;;1.40;1.30;;;7.60;99.90;;;;;;4964211;28;20258;-69
2022/12/28 12:14:02;;;;;;;1.37;1.27;;;7.60;99.90;;;;;;4988382;28;20206;-69
2022/12/28 12:16:41;;;;;;;2.13;1.60;;;7.70;99.90;;;;;;4988252;28;20660;-69
2022/12/28 12:19:18;;;;;;;1.50;1.40;;;7.70;99.90;;;;;;4973320;28;20203;-69
2022/12/28 12:21:49;;;;;;;1.50;1.40;;;7.80;99.90;;;;;;4968941;28;20305;-69
2022/12/28 12:24:25;;;;;;;2.83;1.73;;;7.90;99.90;;;;;;4984789;28;20289;-69
2022/12/28 12:26:57;;;;;;;7.43;1.63;;;8.20;99.90;;;;;;4988171;28;20194;-70
2022/12/28 12:29:33;;;;;;;1.50;1.40;;;8.20;99.90;;;;;;4988379;28;20206;-70
2022/12/28 12:32:02;;;;;;;1.53;1.33;;;8.30;99.90;;;;;;4988338;28;20222;-70
2022/12/28 12:34:41;;;;;;;2.47;1.37;;;8.30;99.90;;;;;;4988009;28;20206;-70
2022/12/28 12:37:37;;;;;;;2.03;1.50;;;8.30;99.90;;;;;;4988407;28;20198;-69
2022/12/28 12:40:29;;;;;;;1.57;1.47;;;8.30;99.90;;;;;;4968881;28;20689;-70
2022/12/28 12:43:17;;;;;;;1.40;1.30;;;8.30;99.90;;;;;;4973813;28;20646;-70
2022/12/28 12:45:55;;;;;;;1.90;1.60;;;8.30;99.90;;;;;;4988365;28;20250;-70
2022/12/28 12:48:42;;;;;;;1.80;1.63;;;8.40;99.90;;;;;;4988065;28;20643;-70
2022/12/28 12:51:21;;;;;;;1.30;1.30;;;8.50;99.90;;;;;;4988130;28;20313;-70
2022/12/28 12:54:17;;;;;;;1.40;1.30;;;8.60;99.90;;;;;;4987761;28;20264;-70
2022/12/28 12:56:51;;;;;;;2.23;1.60;;;8.70;99.90;;;;;;4983837;28;20294;-70
2022/12/28 12:59:33;;;;;;;1.50;1.40;;;8.70;99.90;;;;;;4987660;28;20208;-69
2022/12/28 13:02:25;;;;;;;1.60;1.50;;;8.70;99.90;;;;;;4988026;28;20305;-70
2022/12/28 13:04:52;;;;;;;1.47;1.37;;;8.80;99.90;;;;;;4987795;28;20261;-70
2022/12/28 13:07:22;;;;;;;1.73;1.63;;;9.00;99.90;;;;;;4987697;28;20206;-70
2022/12/28 13:09:50;;;;;;;1.80;1.70;;;9.00;99.90;;;;;;4987915;28;20874;-70
2022/12/28 13:12:19;;;;;;;1.57;1.40;;;9.00;99.90;;;;;;4987303;28;20316;-70
2022/12/28 13:14:48;;;;;;;1.70;1.60;;;9.00;99.90;;;;;;4987667;28;20280;-70
2022/12/28 13:17:19;;;;;;;2.87;1.63;;;9.00;99.90;;;;;;4988053;28;20313;-70
2022/12/28 13:19:46;;;;;;;1.83;1.33;;;9.00;99.90;;;;;;4987382;28;20236;-70
2022/12/28 13:22:26;;;;;;;3.43;1.30;;;9.00;99.90;;;;;;4987909;28;21049;-69
2022/12/28 13:24:53;;;;;;;1.43;1.03;;;9.00;99.90;;;;;;4967542;28;20222;-69
2022/12/28 13:27:22;;;;;;;1.20;1.10;;;9.00;99.90;;;;;;4980010;28;20281;-70
2022/12/28 13:29:52;;;;;;;1.53;1.40;;;9.00;99.90;;;;;;4987303;28;20209;-70
2022/12/28 13:32:28;;;;;;;1.80;1.40;;;9.10;99.90;;;;;;4983052;28;20201;-70
2022/12/28 13:34:55;;;;;;;1.40;1.30;;;9.10;99.90;;;;;;4978876;28;20244;-70
2022/12/28 13:37:22;;;;;;;2.50;1.43;;;9.00;99.90;;;;;;4980147;28;20209;-70
2022/12/28 13:39:49;;;;;;;1.57;1.13;;;9.10;99.90;;;;;;4975013;28;20207;-70
2022/12/28 13:42:18;;;;;;;2.53;1.60;;;9.10;99.90;;;;;;4975848;28;20286;-70
2022/12/28 13:44:48;;;;;;;1.50;1.40;;;9.00;99.90;;;;;;4977519;28;20230;-70